Time;durP1;ratioP1;P1;durP2;ratioP2;P2;SDS_P1;SDS_P2;PMS_P1;PMS_P2;Temp;Humidity;BMP_temperature;BMP_pressure;BME280_temperature;BME280_humidity;BME280_pressure;Samples;Min_cycle;Max_cycle;Signal;HPM_P1;HPM_P2
2023/06/13 00:00:00;;;;;;;12.05;4.22;;;19.00;91.40;;;;;;5043261;28;20052;-71
2023/06/13 00:02:28;;;;;;;9.98;3.70;;;19.00;91.40;;;;;;5043325;28;20085;-73
2023/06/13 00:04:55;;;;;;;10.73;4.13;;;18.90;91.30;;;;;;5043302;28;20032;-71
2023/06/13 00:07:22;;;;;;;7.95;4.30;;;18.80;91.50;;;;;;5043485;28;20025;-70
2023/06/13 00:09:47;;;;;;;7.60;4.50;;;18.80;91.60;;;;;;5041279;28;20029;-71
2023/06/13 00:12:13;;;;;;;7.00;4.80;;;18.80;91.60;;;;;;5041557;28;20060;-70
2023/06/13 00:14:39;;;;;;;12.50;4.63;;;18.80;91.50;;;;;;5041996;28;20037;-70
2023/06/13 00:17:04;;;;;;;8.73;4.15;;;18.70;91.40;;;;;;5042280;28;20466;-71
2023/06/13 00:19:30;;;;;;;9.13;4.60;;;18.70;91.40;;;;;;5040998;28;20025;-71
2023/06/13 00:21:58;;;;;;;7.80;4.30;;;18.70;91.60;;;;;;5042843;28;20043;-73
2023/06/13 00:24:23;;;;;;;9.23;4.40;;;18.60;91.50;;;;;;5042513;28;20493;-71
2023/06/13 00:26:49;;;;;;;8.27;4.40;;;18.60;91.40;;;;;;5042796;28;20761;-70
2023/06/13 00:29:14;;;;;;;9.85;4.05;;;18.60;91.60;;;;;;5042885;28;20029;-70
2023/06/13 00:31:40;;;;;;;7.30;4.20;;;18.50;91.60;;;;;;5040989;28;20064;-70
2023/06/13 00:34:06;;;;;;;12.90;4.40;;;18.50;91.70;;;;;;5042771;28;20025;-71
2023/06/13 00:36:37;;;;;;;7.88;4.20;;;18.40;91.60;;;;;;5041631;28;20037;-70
2023/06/13 00:39:03;;;;;;;7.60;4.13;;;18.40;91.40;;;;;;5042614;28;20033;-70
2023/06/13 00:41:32;;;;;;;11.05;5.25;;;18.30;91.70;;;;;;5042705;28;20429;-70
2023/06/13 00:43:57;;;;;;;8.07;4.03;;;18.30;91.70;;;;;;5042080;28;20021;-72
2023/06/13 00:46:32;;;;;;;7.93;4.00;;;18.30;91.70;;;;;;5042285;28;20072;-72
2023/06/13 00:48:58;;;;;;;9.10;4.10;;;18.10;92.10;;;;;;5042649;28;20495;-72
2023/06/13 00:51:27;;;;;;;8.77;4.28;;;18.10;91.60;;;;;;5043127;28;20044;-70
2023/06/13 00:53:54;;;;;;;8.55;4.28;;;18.10;91.90;;;;;;5040783;28;20024;-70
2023/06/13 00:56:20;;;;;;;8.70;3.92;;;18.10;91.90;;;;;;5042031;28;20025;-72
2023/06/13 00:58:45;;;;;;;10.23;4.45;;;18.00;91.90;;;;;;5041868;28;20051;-72
2023/06/13 01:01:13;;;;;;;7.25;4.13;;;18.10;91.90;;;;;;5040983;28;20079;-72
2023/06/13 01:03:39;;;;;;;7.93;4.13;;;18.00;92.00;;;;;;5041031;28;20414;-71
2023/06/13 01:06:05;;;;;;;8.93;4.28;;;17.90;92.00;;;;;;5041514;28;20035;-72
2023/06/13 01:08:31;;;;;;;6.00;4.10;;;17.90;92.20;;;;;;5042010;28;20032;-70
2023/06/13 01:11:04;;;;;;;7.68;4.13;;;17.90;92.20;;;;;;5040805;28;20041;-72
2023/06/13 01:13:43;;;;;;;11.35;4.53;;;17.80;92.30;;;;;;5041692;28;20029;-70
2023/06/13 01:16:28;;;;;;;10.52;4.38;;;17.80;92.60;;;;;;5040836;28;20077;-71
2023/06/13 01:18:58;;;;;;;9.77;4.47;;;17.70;92.60;;;;;;5042055;28;20661;-69
2023/06/13 01:21:26;;;;;;;9.95;4.07;;;17.60;92.50;;;;;;5041450;28;20120;-70
2023/06/13 01:24:05;;;;;;;6.43;4.20;;;17.60;92.50;;;;;;5040679;28;20026;-70
2023/06/13 01:26:54;;;;;;;6.00;4.15;;;17.50;92.60;;;;;;5041845;28;20026;-71
2023/06/13 01:29:21;;;;;;;8.43;4.57;;;17.50;92.70;;;;;;5039822;28;20966;-70
2023/06/13 01:31:52;;;;;;;8.52;4.65;;;17.50;92.60;;;;;;5039732;28;20034;-70
2023/06/13 01:34:18;;;;;;;9.50;4.60;;;17.40;92.70;;;;;;5041588;28;20045;-69
2023/06/13 01:36:45;;;;;;;10.07;4.40;;;17.30;92.80;;;;;;5040881;28;20032;-70
2023/06/13 01:39:10;;;;;;;8.20;4.63;;;17.30;92.80;;;;;;5041116;28;20025;-68
2023/06/13 01:41:36;;;;;;;9.90;4.40;;;17.20;92.80;;;;;;5040063;28;20104;-71
2023/06/13 01:44:04;;;;;;;7.32;4.40;;;17.10;92.90;;;;;;5039439;28;20428;-71
2023/06/13 01:46:33;;;;;;;10.20;4.35;;;17.20;92.80;;;;;;5041086;28;20081;-71
2023/06/13 01:49:25;;;;;;;7.53;4.75;;;17.10;92.80;;;;;;5040627;28;20482;-70
2023/06/13 01:52:02;;;;;;;9.05;4.78;;;17.10;93.10;;;;;;5041049;28;20041;-70
2023/06/13 01:54:31;;;;;;;10.00;4.63;;;17.10;93.00;;;;;;5041268;28;20081;-70
2023/06/13 01:57:01;;;;;;;10.55;5.07;;;17.00;93.00;;;;;;5040981;28;20085;-69
2023/06/13 01:59:28;;;;;;;8.07;4.93;;;17.00;92.80;;;;;;5041531;28;20034;-72
2023/06/13 02:01:56;;;;;;;9.40;4.70;;;16.90;92.80;;;;;;5041183;28;20029;-70
2023/06/13 02:04:21;;;;;;;13.00;4.82;;;17.00;92.80;;;;;;5040718;28;20086;-70
2023/06/13 02:06:47;;;;;;;9.45;5.10;;;16.90;93.00;;;;;;5040079;28;20021;-70
2023/06/13 02:09:12;;;;;;;9.90;4.88;;;16.90;93.00;;;;;;5040969;28;20033;-70
2023/06/13 02:11:38;;;;;;;10.38;4.82;;;16.90;93.10;;;;;;5039210;28;20058;-70
2023/06/13 02:14:03;;;;;;;9.82;4.90;;;16.80;93.00;;;;;;5039870;28;20029;-72
2023/06/13 02:16:30;;;;;;;12.50;5.30;;;16.70;93.00;;;;;;5039717;28;20018;-71
2023/06/13 02:18:59;;;;;;;13.80;4.97;;;16.80;93.20;;;;;;5040444;28;20025;-71
2023/06/13 02:21:26;;;;;;;7.28;4.78;;;16.80;93.40;;;;;;5040854;28;20056;-72
2023/06/13 02:23:51;;;;;;;11.32;4.97;;;16.70;93.30;;;;;;5041014;28;20036;-72
2023/06/13 02:26:17;;;;;;;13.32;5.40;;;16.60;93.10;;;;;;5040818;28;20065;-69
2023/06/13 02:28:43;;;;;;;9.65;4.57;;;16.70;93.30;;;;;;5039724;28;20021;-70
2023/06/13 02:31:08;;;;;;;6.43;4.63;;;16.50;93.30;;;;;;5038519;28;20034;-70
2023/06/13 02:33:36;;;;;;;14.73;5.40;;;16.50;93.20;;;;;;5040974;28;20081;-72
2023/06/13 02:36:02;;;;;;;10.32;5.30;;;16.50;93.80;;;;;;5039972;28;20032;-70
2023/06/13 02:38:28;;;;;;;8.02;4.50;;;16.50;93.50;;;;;;5039255;28;20026;-73
2023/06/13 02:40:54;;;;;;;7.32;4.60;;;16.50;93.50;;;;;;5040902;28;20092;-70
2023/06/13 02:43:20;;;;;;;7.65;4.43;;;16.40;93.50;;;;;;5039712;28;20030;-69
2023/06/13 02:45:46;;;;;;;8.18;4.82;;;16.30;93.60;;;;;;5040590;28;20049;-70
2023/06/13 02:48:11;;;;;;;7.18;4.25;;;16.30;93.50;;;;;;5040495;28;20060;-70
2023/06/13 02:50:37;;;;;;;11.55;4.30;;;16.40;93.70;;;;;;5040012;28;20394;-72
2023/06/13 02:53:03;;;;;;;9.70;4.65;;;16.40;93.60;;;;;;5040690;28;20021;-70
2023/06/13 02:55:29;;;;;;;7.85;4.40;;;16.20;93.70;;;;;;5038889;28;20486;-70
2023/06/13 02:57:55;;;;;;;12.88;4.75;;;16.30;93.60;;;;;;5038407;28;20018;-69
2023/06/13 03:00:21;;;;;;;6.95;4.20;;;16.30;93.70;;;;;;5040948;28;20029;-70
2023/06/13 03:02:47;;;;;;;7.82;4.28;;;16.20;93.80;;;;;;5038999;28;20018;-71
2023/06/13 03:05:16;;;;;;;9.57;4.35;;;16.30;93.70;;;;;;5038479;28;20036;-70
2023/06/13 03:07:46;;;;;;;8.48;4.07;;;16.20;93.80;;;;;;5040641;28;20026;-71
2023/06/13 03:10:12;;;;;;;11.95;4.28;;;16.30;93.80;;;;;;5040182;28;20033;-69
2023/06/13 03:12:38;;;;;;;8.75;4.20;;;16.20;93.90;;;;;;5039798;28;20087;-71
2023/06/13 03:15:04;;;;;;;6.90;4.00;;;16.10;93.70;;;;;;5039754;28;20040;-70
2023/06/13 03:17:30;;;;;;;10.05;4.32;;;16.20;94.10;;;;;;5040449;28;20034;-70
2023/06/13 03:19:55;;;;;;;9.82;3.97;;;16.20;94.00;;;;;;5039799;28;20032;-72
2023/06/13 03:22:21;;;;;;;8.63;3.97;;;16.20;94.20;;;;;;5040514;28;20036;-69
2023/06/13 03:24:46;;;;;;;7.28;3.72;;;16.10;94.20;;;;;;5040249;28;20435;-69
2023/06/13 03:27:12;;;;;;;8.82;3.90;;;16.00;94.10;;;;;;5042261;28;20044;-71
2023/06/13 03:29:42;;;;;;;8.18;3.80;;;16.10;94.40;;;;;;5043900;28;20029;-69
2023/06/13 03:32:09;;;;;;;4.70;3.40;;;16.00;94.40;;;;;;5042361;28;20049;-70
2023/06/13 03:34:38;;;;;;;8.77;3.85;;;16.10;94.40;;;;;;5044014;28;20017;-71
2023/06/13 03:37:07;;;;;;;6.03;3.72;;;15.90;94.50;;;;;;5043554;28;20081;-70
2023/06/13 03:39:33;;;;;;;8.15;3.65;;;16.00;94.60;;;;;;5043691;28;20085;-70
2023/06/13 03:42:00;;;;;;;8.23;3.63;;;15.90;94.50;;;;;;5043634;28;20136;-70
2023/06/13 03:44:26;;;;;;;6.85;3.65;;;15.90;94.70;;;;;;5043341;28;20034;-71
2023/06/13 03:46:53;;;;;;;6.90;3.67;;;15.80;94.90;;;;;;5041431;28;20041;-71
2023/06/13 03:49:19;;;;;;;5.53;3.70;;;15.80;95.00;;;;;;5041026;28;20072;-70
2023/06/13 03:51:44;;;;;;;12.68;4.00;;;15.80;95.00;;;;;;5042160;28;20033;-71
2023/06/13 03:54:10;;;;;;;8.18;3.60;;;15.80;95.30;;;;;;5043063;28;20490;-71
2023/06/13 03:56:36;;;;;;;6.70;3.63;;;15.70;95.30;;;;;;5041856;28;20040;-69
2023/06/13 03:59:02;;;;;;;5.93;3.72;;;15.80;95.40;;;;;;5042388;28;20033;-70
2023/06/13 04:01:28;;;;;;;8.43;3.60;;;15.80;95.50;;;;;;5043822;28;20021;-70
2023/06/13 04:03:54;;;;;;;7.30;3.40;;;15.70;95.40;;;;;;5043944;28;20030;-68
2023/06/13 04:06:19;;;;;;;5.72;3.10;;;15.70;95.70;;;;;;5043799;28;20028;-70
2023/06/13 04:08:45;;;;;;;5.57;3.47;;;15.70;95.60;;;;;;5043452;28;20022;-69
2023/06/13 04:11:11;;;;;;;5.90;3.17;;;15.60;95.50;;;;;;5042525;28;20037;-69
2023/06/13 04:13:36;;;;;;;7.57;2.90;;;15.60;95.80;;;;;;5043609;28;20085;-70
2023/06/13 04:16:02;;;;;;;6.57;3.33;;;15.60;95.90;;;;;;5042305;28;20037;-69
2023/06/13 04:18:29;;;;;;;4.95;3.20;;;15.60;95.90;;;;;;5043062;28;20060;-70
2023/06/13 04:20:55;;;;;;;11.88;3.13;;;15.60;96.10;;;;;;5043496;28;20025;-70
2023/06/13 04:23:21;;;;;;;3.95;2.88;;;15.60;96.60;;;;;;5043315;28;20029;-69
2023/06/13 04:25:47;;;;;;;5.65;2.80;;;15.60;96.30;;;;;;5041846;28;20021;-69
2023/06/13 04:28:13;;;;;;;5.82;3.20;;;15.60;96.30;;;;;;5043238;28;20045;-70
2023/06/13 04:30:40;;;;;;;11.98;3.58;;;15.60;96.30;;;;;;5042265;28;20041;-70
2023/06/13 04:33:13;;;;;;;7.50;2.92;;;15.50;96.40;;;;;;5042026;28;20108;-69
2023/06/13 04:35:44;;;;;;;9.38;3.40;;;15.60;96.60;;;;;;5042138;28;20131;-69
2023/06/13 04:38:14;;;;;;;9.65;3.25;;;15.60;96.60;;;;;;5041343;28;20056;-70
2023/06/13 04:40:40;;;;;;;5.60;3.20;;;15.50;96.70;;;;;;5042160;28;20030;-68
2023/06/13 04:43:05;;;;;;;7.35;3.10;;;15.60;96.90;;;;;;5042660;28;20027;-70
2023/06/13 04:45:32;;;;;;;6.68;3.40;;;15.70;97.10;;;;;;5043262;28;20053;-68
2023/06/13 04:48:01;;;;;;;11.88;3.13;;;15.70;97.20;;;;;;5042476;28;20089;-68
2023/06/13 04:50:27;;;;;;;9.65;3.50;;;15.70;97.30;;;;;;5040738;28;20033;-71
2023/06/13 04:52:53;;;;;;;7.15;3.47;;;15.60;97.30;;;;;;5043018;28;20056;-70
2023/06/13 04:55:21;;;;;;;8.20;3.53;;;15.70;97.60;;;;;;5041478;28;20040;-68
2023/06/13 04:57:47;;;;;;;5.75;3.33;;;15.70;97.70;;;;;;5042249;28;20031;-68
2023/06/13 05:00:12;;;;;;;6.45;2.92;;;15.70;97.80;;;;;;5042894;28;20097;-69
2023/06/13 05:02:42;;;;;;;8.35;3.83;;;15.70;98.00;;;;;;5041789;28;20025;-69
2023/06/13 05:05:08;;;;;;;10.68;3.50;;;15.70;98.10;;;;;;5041562;28;20028;-70
2023/06/13 05:07:39;;;;;;;7.75;3.00;;;15.70;98.00;;;;;;5041235;28;20032;-69
2023/06/13 05:10:05;;;;;;;5.28;3.17;;;15.70;98.20;;;;;;5041594;28;20033;-68
2023/06/13 05:12:30;;;;;;;8.07;3.08;;;15.80;98.20;;;;;;5042143;28;20047;-70
2023/06/13 05:14:56;;;;;;;10.00;2.97;;;15.70;98.30;;;;;;5041342;28;20033;-70
2023/06/13 05:17:22;;;;;;;11.60;2.97;;;15.80;98.40;;;;;;5042581;28;20116;-68
2023/06/13 05:19:48;;;;;;;5.57;2.90;;;15.80;98.50;;;;;;5041038;28;20023;-69
2023/06/13 05:22:15;;;;;;;6.43;3.03;;;15.80;98.50;;;;;;5042516;28;20025;-68
2023/06/13 05:24:41;;;;;;;11.18;2.88;;;15.80;98.70;;;;;;5041918;28;20014;-71
2023/06/13 05:27:07;;;;;;;9.30;3.25;;;15.90;99.00;;;;;;5041001;28;20022;-69
2023/06/13 05:29:32;;;;;;;5.53;2.83;;;15.80;99.00;;;;;;5042403;28;20025;-69
2023/06/13 05:31:58;;;;;;;9.35;2.85;;;15.90;99.00;;;;;;5042000;28;20105;-69
2023/06/13 05:34:24;;;;;;;8.20;3.25;;;15.90;99.10;;;;;;5040526;28;20013;-68
2023/06/13 05:36:49;;;;;;;11.00;3.38;;;16.00;99.10;;;;;;5042130;28;20025;-69
2023/06/13 05:39:15;;;;;;;6.55;3.22;;;16.00;99.40;;;;;;5041756;28;20561;-69
2023/06/13 05:41:41;;;;;;;8.48;2.90;;;16.00;99.40;;;;;;5039862;28;20033;-70
2023/06/13 05:44:06;;;;;;;6.60;2.75;;;16.10;99.30;;;;;;5041960;28;20025;-70
2023/06/13 05:46:32;;;;;;;9.90;3.33;;;16.20;99.30;;;;;;5041908;28;20032;-70
2023/06/13 05:48:58;;;;;;;12.48;3.17;;;16.10;99.50;;;;;;5041070;28;20049;-69
2023/06/13 05:51:24;;;;;;;4.13;3.13;;;16.20;99.50;;;;;;5041563;28;20042;-68
2023/06/13 05:53:50;;;;;;;10.88;3.60;;;16.20;99.70;;;;;;5040308;28;20097;-69
2023/06/13 05:56:16;;;;;;;9.98;3.17;;;16.20;99.70;;;;;;5041659;28;20033;-71
2023/06/13 05:58:41;;;;;;;8.27;3.50;;;16.20;99.90;;;;;;5040459;28;20030;-68
2023/06/13 06:01:10;;;;;;;6.28;3.15;;;16.30;99.90;;;;;;5041564;28;20089;-71
2023/06/13 06:03:36;;;;;;;10.57;3.55;;;16.30;99.90;;;;;;5041347;28;20021;-70
2023/06/13 06:06:01;;;;;;;9.68;3.05;;;16.40;99.90;;;;;;5039705;28;20032;-70
2023/06/13 06:08:28;;;;;;;14.00;3.15;;;16.40;99.90;;;;;;5039558;28;20034;-70
2023/06/13 06:10:53;;;;;;;10.93;2.95;;;16.50;99.90;;;;;;5041156;28;20029;-70
2023/06/13 06:13:19;;;;;;;6.13;2.90;;;16.50;99.90;;;;;;5041514;28;20033;-68
2023/06/13 06:15:45;;;;;;;9.00;3.33;;;16.60;99.90;;;;;;5041494;28;20034;-68
2023/06/13 06:18:10;;;;;;;4.57;2.75;;;16.60;99.90;;;;;;5041713;28;20029;-69
2023/06/13 06:20:36;;;;;;;4.28;2.90;;;16.70;99.90;;;;;;5041198;28;20022;-68
2023/06/13 06:23:01;;;;;;;8.75;3.28;;;16.70;99.90;;;;;;5041417;28;20030;-71
2023/06/13 06:25:27;;;;;;;3.55;2.55;;;16.80;99.90;;;;;;5041879;28;20022;-69
2023/06/13 06:27:53;;;;;;;7.97;3.22;;;16.80;99.90;;;;;;5041395;28;20044;-68
2023/06/13 06:30:18;;;;;;;7.03;3.00;;;16.90;99.90;;;;;;5040766;28;20029;-69
2023/06/13 06:32:44;;;;;;;4.82;2.83;;;16.90;99.90;;;;;;5041545;28;20089;-69
2023/06/13 06:35:10;;;;;;;8.95;3.03;;;17.00;99.90;;;;;;5041132;28;20022;-68
2023/06/13 06:37:36;;;;;;;3.83;2.78;;;17.10;99.90;;;;;;5040508;28;20053;-69
2023/06/13 06:40:03;;;;;;;10.13;2.90;;;17.10;99.90;;;;;;5040565;28;20266;-69
2023/06/13 06:42:28;;;;;;;7.82;2.97;;;17.30;99.90;;;;;;5041044;28;20037;-68
2023/06/13 06:44:54;;;;;;;8.02;2.90;;;17.30;99.90;;;;;;5040854;28;20021;-69
2023/06/13 06:47:20;;;;;;;5.50;2.72;;;17.50;99.90;;;;;;5041511;28;20018;-67
2023/06/13 06:49:45;;;;;;;10.63;3.05;;;17.60;99.90;;;;;;5040752;28;20042;-69
2023/06/13 06:52:11;;;;;;;6.65;2.65;;;17.70;99.90;;;;;;5041162;28;20120;-69
2023/06/13 06:54:36;;;;;;;10.73;2.70;;;17.60;99.90;;;;;;5040857;28;20032;-69
2023/06/13 06:57:03;;;;;;;7.70;3.20;;;17.70;99.90;;;;;;5041283;28;20032;-69
2023/06/13 06:59:29;;;;;;;11.07;3.00;;;17.80;99.90;;;;;;5041479;28;20052;-67
2023/06/13 07:01:55;;;;;;;3.67;2.47;;;17.90;99.90;;;;;;5044884;28;20013;-69
2023/06/13 07:04:22;;;;;;;10.93;2.80;;;18.00;99.90;;;;;;5044723;28;20052;-67
2023/06/13 07:06:48;;;;;;;5.28;2.70;;;18.00;99.90;;;;;;5043978;28;20530;-68
2023/06/13 07:09:14;;;;;;;7.00;2.83;;;18.10;99.90;;;;;;5044710;28;20025;-69
2023/06/13 07:11:39;;;;;;;6.97;2.47;;;18.10;99.90;;;;;;5044264;28;20497;-69
2023/06/13 07:14:05;;;;;;;6.82;2.90;;;18.20;99.90;;;;;;5044784;28;20026;-69
2023/06/13 07:16:30;;;;;;;5.03;3.08;;;18.30;99.90;;;;;;5041792;28;20025;-67
2023/06/13 07:18:56;;;;;;;5.30;2.60;;;18.50;99.90;;;;;;5043775;28;20041;-69
2023/06/13 07:21:22;;;;;;;9.70;3.00;;;18.40;99.90;;;;;;5043866;28;20048;-67
2023/06/13 07:23:47;;;;;;;7.50;2.90;;;18.40;99.90;;;;;;5042431;28;20029;-69
2023/06/13 07:26:14;;;;;;;7.40;2.75;;;18.40;99.90;;;;;;5044497;28;20116;-69
2023/06/13 07:28:40;;;;;;;7.20;3.08;;;18.50;99.90;;;;;;5044373;28;20081;-67
2023/06/13 07:31:05;;;;;;;5.50;2.92;;;18.60;99.90;;;;;;5043956;28;20056;-68
2023/06/13 07:33:31;;;;;;;6.35;2.85;;;18.70;99.90;;;;;;5044402;28;20108;-67
2023/06/13 07:35:57;;;;;;;7.05;3.17;;;18.70;99.90;;;;;;5044381;28;20030;-71
2023/06/13 07:38:23;;;;;;;6.93;2.95;;;18.80;99.90;;;;;;5044089;28;20064;-67
2023/06/13 07:40:49;;;;;;;5.93;2.60;;;18.90;99.90;;;;;;5044276;28;20085;-69
2023/06/13 07:43:15;;;;;;;4.43;2.72;;;19.00;99.90;;;;;;5044223;28;20021;-67
2023/06/13 07:45:40;;;;;;;8.25;2.90;;;19.10;99.90;;;;;;5043736;28;20025;-69
2023/06/13 07:48:06;;;;;;;10.18;3.30;;;19.20;99.90;;;;;;5043853;28;20041;-68
2023/06/13 07:50:32;;;;;;;6.03;2.50;;;19.30;99.90;;;;;;5042733;28;20053;-67
2023/06/13 07:52:58;;;;;;;6.40;2.50;;;19.30;99.90;;;;;;5043519;28;20061;-68
2023/06/13 07:55:24;;;;;;;5.53;2.50;;;19.50;99.60;;;;;;5044083;28;20030;-70
2023/06/13 07:57:50;;;;;;;4.68;2.67;;;19.60;99.70;;;;;;5042719;28;20071;-68
2023/06/13 08:00:16;;;;;;;7.85;2.80;;;19.60;99.50;;;;;;5043744;28;20014;-68
2023/06/13 08:02:43;;;;;;;8.38;2.70;;;19.80;99.20;;;;;;5043544;28;20026;-70
2023/06/13 08:05:09;;;;;;;8.57;2.80;;;19.90;99.00;;;;;;5042808;28;20077;-69
2023/06/13 08:07:35;;;;;;;8.65;2.80;;;19.90;98.90;;;;;;5041191;28;20041;-66
2023/06/13 08:10:00;;;;;;;6.40;2.22;;;20.00;98.80;;;;;;5042579;28;20532;-69
2023/06/13 08:12:26;;;;;;;3.45;2.40;;;20.10;98.60;;;;;;5041295;28;20037;-70
2023/06/13 08:14:51;;;;;;;6.53;2.53;;;20.20;97.90;;;;;;5043716;28;20030;-70
2023/06/13 08:17:17;;;;;;;6.75;2.40;;;20.20;97.80;;;;;;5042763;28;20386;-69
2023/06/13 08:19:48;;;;;;;6.75;2.22;;;20.40;97.30;;;;;;5042564;28;20031;-68
2023/06/13 08:22:14;;;;;;;5.50;2.63;;;20.50;97.60;;;;;;5043101;28;20694;-67
2023/06/13 08:24:40;;;;;;;5.13;2.50;;;20.60;96.90;;;;;;5042352;28;20470;-68
2023/06/13 08:27:07;;;;;;;6.85;2.60;;;20.70;96.70;;;;;;5042740;28;20032;-68
2023/06/13 08:29:33;;;;;;;5.85;2.30;;;20.70;96.40;;;;;;5040934;28;20020;-69
2023/06/13 08:31:59;;;;;;;6.63;2.30;;;20.80;96.50;;;;;;5040261;28;20045;-68
2023/06/13 08:34:26;;;;;;;5.07;2.42;;;20.90;96.50;;;;;;5040937;28;20021;-69
2023/06/13 08:36:51;;;;;;;5.57;2.50;;;21.00;96.00;;;;;;5040522;28;20040;-69
2023/06/13 08:39:17;;;;;;;6.18;2.40;;;21.10;95.80;;;;;;5041267;28;20018;-68
2023/06/13 08:41:44;;;;;;;11.25;2.60;;;21.20;95.80;;;;;;5041284;28;20352;-69
2023/06/13 08:44:10;;;;;;;9.38;2.65;;;21.30;95.80;;;;;;5041140;28;20033;-66
2023/06/13 08:46:36;;;;;;;5.07;2.60;;;21.40;95.60;;;;;;5040697;28;20038;-69
2023/06/13 08:49:02;;;;;;;10.80;2.65;;;21.50;95.50;;;;;;5039459;28;20451;-69
2023/06/13 08:51:30;;;;;;;5.03;2.40;;;21.60;95.30;;;;;;5039820;28;20940;-68
2023/06/13 08:54:02;;;;;;;8.13;2.70;;;21.60;95.30;;;;;;5040418;28;20039;-68
2023/06/13 08:56:32;;;;;;;9.90;3.08;;;21.80;95.40;;;;;;5040901;28;20049;-68
2023/06/13 08:59:06;;;;;;;13.98;3.10;;;21.90;95.30;;;;;;5040201;28;20029;-69
2023/06/13 09:01:32;;;;;;;10.55;2.67;;;21.90;95.30;;;;;;5040673;28;20028;-67
2023/06/13 09:03:59;;;;;;;6.45;2.92;;;22.00;95.40;;;;;;5038782;28;20163;-67
2023/06/13 09:06:24;;;;;;;8.60;2.80;;;22.20;95.80;;;;;;5042397;28;20021;-69
2023/06/13 09:08:52;;;;;;;5.40;2.97;;;22.30;95.50;;;;;;5041652;28;20056;-68
2023/06/13 09:11:20;;;;;;;4.75;2.90;;;22.40;95.60;;;;;;5041091;28;20041;-67
2023/06/13 09:13:47;;;;;;;7.13;3.03;;;22.50;95.50;;;;;;5038427;28;20044;-70
2023/06/13 09:16:13;;;;;;;7.30;2.80;;;22.60;95.60;;;;;;5040939;28;20052;-68
2023/06/13 09:18:42;;;;;;;7.00;2.92;;;22.80;94.70;;;;;;5042331;28;20486;-67
2023/06/13 09:21:11;;;;;;;10.10;2.60;;;22.90;94.50;;;;;;5042232;28;20036;-68
2023/06/13 09:23:38;;;;;;;4.75;2.78;;;23.00;94.40;;;;;;5042279;28;20025;-67
2023/06/13 09:26:05;;;;;;;6.13;2.78;;;23.10;94.00;;;;;;5040745;28;20021;-69
2023/06/13 09:28:36;;;;;;;5.07;2.72;;;23.10;94.00;;;;;;5042012;28;20018;-70
2023/06/13 09:31:01;;;;;;;4.82;2.50;;;23.20;94.00;;;;;;5041323;28;20156;-72
2023/06/13 09:33:27;;;;;;;6.15;2.85;;;23.20;93.90;;;;;;5042193;28;20049;-69
2023/06/13 09:35:53;;;;;;;6.05;3.10;;;23.30;93.50;;;;;;5042062;28;20064;-67
2023/06/13 09:38:26;;;;;;;11.80;3.30;;;23.20;93.20;;;;;;5041719;28;20416;-69
2023/06/13 09:40:54;;;;;;;7.10;2.70;;;23.30;93.30;;;;;;5041428;28;20080;-69
2023/06/13 09:43:21;;;;;;;8.25;2.72;;;23.30;93.10;;;;;;5041774;28;20492;-67
2023/06/13 09:45:53;;;;;;;5.72;2.90;;;23.40;93.20;;;;;;5041643;28;20074;-70
2023/06/13 09:48:20;;;;;;;7.85;2.97;;;23.50;92.90;;;;;;5041020;28;20144;-68
2023/06/13 09:50:46;;;;;;;5.35;3.03;;;23.50;93.00;;;;;;5040746;28;20061;-69
2023/06/13 09:53:13;;;;;;;4.88;2.65;;;23.70;92.40;;;;;;5040935;28;20072;-68
2023/06/13 09:55:38;;;;;;;5.78;3.17;;;23.70;92.20;;;;;;5041111;28;20040;-69
2023/06/13 09:58:04;;;;;;;6.75;3.03;;;23.70;92.50;;;;;;5042141;28;20026;-69
2023/06/13 10:00:30;;;;;;;6.25;2.90;;;23.80;92.00;;;;;;5041887;28;20040;-71
2023/06/13 10:02:56;;;;;;;6.20;3.05;;;23.80;92.20;;;;;;5041889;28;20029;-69
2023/06/13 10:05:22;;;;;;;11.52;2.97;;;24.00;92.10;;;;;;5041704;28;20064;-67
2023/06/13 10:07:48;;;;;;;9.18;2.80;;;24.10;91.90;;;;;;5041566;28;20038;-70
2023/06/13 10:10:14;;;;;;;8.50;3.63;;;24.10;91.70;;;;;;5041555;28;20084;-69
2023/06/13 10:12:54;;;;;;;6.13;2.95;;;24.10;91.80;;;;;;5040385;28;20017;-68
2023/06/13 10:15:26;;;;;;;6.47;3.58;;;24.20;91.40;;;;;;5041791;28;20029;-67
2023/06/13 10:17:57;;;;;;;5.70;2.95;;;24.30;91.50;;;;;;5040924;28;20467;-68
2023/06/13 10:20:23;;;;;;;5.78;2.83;;;24.30;91.40;;;;;;5041734;28;20096;-70
2023/06/13 10:22:49;;;;;;;8.68;3.25;;;24.40;91.60;;;;;;5041892;28;20022;-68
2023/06/13 10:25:20;;;;;;;5.75;2.90;;;24.40;91.00;;;;;;5039559;28;20025;-69
2023/06/13 10:27:50;;;;;;;7.60;2.95;;;24.40;91.10;;;;;;5041193;28;20013;-68
2023/06/13 10:30:27;;;;;;;8.52;2.83;;;24.50;91.10;;;;;;5041116;28;20021;-70
2023/06/13 10:33:14;;;;;;;5.68;3.00;;;24.50;91.10;;;;;;5040443;28;20017;-69
2023/06/13 10:35:56;;;;;;;6.30;3.15;;;24.50;90.80;;;;;;5040288;28;20089;-68
2023/06/13 10:38:59;;;;;;;6.18;2.97;;;24.60;91.00;;;;;;5045569;28;20021;-69
2023/06/13 10:41:36;;;;;;;11.25;3.42;;;24.70;89.80;;;;;;5042976;28;20097;-70
2023/06/13 10:44:09;;;;;;;7.70;2.97;;;24.80;90.20;;;;;;5044149;28;20045;-71
2023/06/13 10:46:35;;;;;;;7.90;3.30;;;24.90;90.50;;;;;;5043435;28;20044;-69
2023/06/13 10:49:01;;;;;;;9.10;2.80;;;25.00;90.70;;;;;;5044818;28;20129;-68
2023/06/13 10:51:30;;;;;;;7.22;3.10;;;25.10;90.70;;;;;;5045214;28;20037;-70
2023/06/13 10:54:12;;;;;;;4.15;3.10;;;25.10;90.90;;;;;;5044875;28;20088;-69
2023/06/13 10:56:41;;;;;;;5.25;3.08;;;25.20;90.10;;;;;;5041324;28;20022;-70
2023/06/13 10:59:09;;;;;;;6.13;3.30;;;25.30;90.00;;;;;;5043415;28;20051;-71
2023/06/13 11:01:37;;;;;;;8.98;3.17;;;25.20;89.70;;;;;;5042894;28;20034;-69
2023/06/13 11:04:05;;;;;;;5.30;3.05;;;25.30;90.00;;;;;;5043923;28;20041;-70
2023/06/13 11:06:31;;;;;;;8.60;3.10;;;25.30;89.10;;;;;;5042233;28;20417;-70
2023/06/13 11:09:16;;;;;;;12.27;3.33;;;25.50;88.70;;;;;;5043764;28;20033;-68
2023/06/13 11:12:02;;;;;;;6.53;2.97;;;25.50;89.00;;;;;;5044840;28;20049;-70
2023/06/13 11:14:32;;;;;;;5.93;3.28;;;25.50;86.80;;;;;;5044167;28;20032;-69
2023/06/13 11:16:58;;;;;;;8.30;2.97;;;25.60;88.80;;;;;;5044053;28;20029;-72
2023/06/13 11:19:27;;;;;;;6.82;2.78;;;25.70;88.00;;;;;;5045201;28;20449;-69
2023/06/13 11:22:02;;;;;;;5.22;2.72;;;25.80;88.60;;;;;;5044707;28;20029;-68
2023/06/13 11:24:29;;;;;;;5.38;2.83;;;25.90;88.00;;;;;;5044562;28;20053;-71
2023/06/13 11:26:56;;;;;;;5.18;3.03;;;25.90;87.80;;;;;;5044156;28;20018;-68
2023/06/13 11:29:22;;;;;;;9.00;3.25;;;26.00;87.10;;;;;;5044205;28;20032;-69
2023/06/13 11:31:51;;;;;;;6.43;3.38;;;26.10;87.00;;;;;;5044480;28;20037;-68
2023/06/13 11:34:18;;;;;;;6.20;2.80;;;26.20;85.90;;;;;;5044032;28;20030;-69
2023/06/13 11:36:46;;;;;;;7.05;3.13;;;26.20;86.80;;;;;;5044100;28;20021;-69
2023/06/13 11:39:21;;;;;;;6.93;2.67;;;26.30;86.40;;;;;;5043925;28;20109;-70
2023/06/13 11:41:47;;;;;;;5.78;3.10;;;26.40;86.30;;;;;;5044936;28;20025;-71
2023/06/13 11:44:13;;;;;;;4.78;2.92;;;26.50;84.20;;;;;;5043733;28;20056;-69
2023/06/13 11:46:43;;;;;;;4.40;2.97;;;26.50;84.80;;;;;;5043643;28;20033;-69
2023/06/13 11:49:14;;;;;;;7.85;2.70;;;26.50;84.70;;;;;;5040481;28;20050;-69
2023/06/13 11:51:44;;;;;;;7.45;3.05;;;26.60;85.00;;;;;;5043344;28;20033;-69
2023/06/13 11:54:11;;;;;;;7.43;3.00;;;26.60;83.50;;;;;;5043925;28;20025;-69
2023/06/13 11:56:40;;;;;;;9.35;3.20;;;26.60;82.50;;;;;;5044131;28;20021;-68
2023/06/13 11:59:20;;;;;;;3.92;3.13;;;26.60;83.00;;;;;;5044220;28;20017;-70
2023/06/13 12:01:54;;;;;;;8.95;2.90;;;26.70;79.60;;;;;;5044419;28;20025;-67
2023/06/13 12:04:24;;;;;;;4.43;2.70;;;26.80;81.40;;;;;;5044020;28;20040;-72
2023/06/13 12:06:52;;;;;;;6.22;2.90;;;27.00;82.10;;;;;;5043821;28;20030;-69
2023/06/13 12:09:17;;;;;;;4.97;2.85;;;27.00;81.70;;;;;;5044177;28;20093;-69
2023/06/13 12:11:45;;;;;;;5.28;2.90;;;27.00;80.00;;;;;;5042722;28;20124;-69
2023/06/13 12:14:11;;;;;;;7.28;3.00;;;27.00;80.20;;;;;;5044145;28;20044;-70
2023/06/13 12:16:38;;;;;;;7.05;3.08;;;27.00;79.90;;;;;;5041460;28;20048;-69
2023/06/13 12:19:06;;;;;;;7.45;3.10;;;27.00;79.50;;;;;;5041991;28;20179;-69
2023/06/13 12:21:33;;;;;;;4.68;2.80;;;27.00;80.00;;;;;;5043240;28;20463;-68
2023/06/13 12:24:03;;;;;;;5.55;2.88;;;27.10;80.40;;;;;;5043583;28;20044;-69
2023/06/13 12:26:32;;;;;;;7.07;3.00;;;27.20;79.90;;;;;;5043905;28;20029;-70
2023/06/13 12:29:03;;;;;;;3.33;2.60;;;27.40;80.90;;;;;;5043804;28;20044;-70
2023/06/13 12:31:36;;;;;;;5.40;3.20;;;27.60;80.70;;;;;;5043246;28;20029;-72
2023/06/13 12:34:09;;;;;;;6.00;2.97;;;27.70;79.50;;;;;;5043989;28;20048;-69
2023/06/13 12:36:44;;;;;;;4.45;3.08;;;27.80;78.90;;;;;;5043140;28;20021;-69
2023/06/13 12:39:14;;;;;;;7.10;3.08;;;27.70;78.90;;;;;;5043454;28;20026;-70
2023/06/13 12:41:50;;;;;;;5.93;3.03;;;27.90;80.00;;;;;;5042838;28;20025;-69
2023/06/13 12:44:17;;;;;;;4.78;3.10;;;27.90;78.30;;;;;;5043175;28;20033;-70
2023/06/13 12:46:45;;;;;;;7.32;2.90;;;28.00;78.10;;;;;;5042915;28;20026;-70